NZOH/OHA METAR and TAF weather

Enter ICAO airport designator
Station Type Date Time Source
NZOH METAR 2019/01/27 17:00 UTC NOAA

NZOH 271700Z 31012KT 280V340 8000 RA OVC008 20/19 Q1015 TEMPO 20KM -DZ SCT008 BKN013 TEMPO 3000 DZ


Station Type Date Time Source
NZOH Decoded METAR 2019/01/27 17:00 UTC NOAA

Ohakea, New Zealand (NZOH) 40-12S 175-22E 52M
Jan 27, 2019 - 12:00 PM EST / 2019.01.27 1700 UTC
Wind: from the NW (310 degrees) at 14 MPH (12 KT) (direction variable):0
Visibility: 4 mile(s):0
Sky conditions: overcast
Weather: rain
Temperature: 68 F (20 C)
Dew Point: 66 F (19 C)
Relative Humidity: 93%
Pressure (altimeter): 29.97 in. Hg (1015 hPa)
ob: NZOH 271700Z 31012KT 280V340 8000 RA OVC008 20/19 Q1015 TEMPO 20KM -DZ SCT008 BKN013 TEMPO 3000 DZ
cycle: 17

Station Type Date Time Source
NZOH TAF 2007/12/14 04:59 UTC NOAA

TAF NZOH 140459Z 140606 11020KT 30KM SCT080 BECMH 0911 03008KT
BECMG 2224 27012KT


Example: see airport list